sensor_id;sensor_type;location;lat;lon;timestamp;temperature;humidity
83019;DHT22;72834;40.104;18.336;2023-11-21T00:02:22;14.20;99.90
83019;DHT22;72834;40.104;18.336;2023-11-21T00:04:48;14.20;99.90
83019;DHT22;72834;40.104;18.336;2023-11-21T00:07:15;14.20;99.90
83019;DHT22;72834;40.104;18.336;2023-11-21T00:09:42;14.20;99.90
83019;DHT22;72834;40.104;18.336;2023-11-21T00:12:08;14.20;99.90
83019;DHT22;72834;40.104;18.336;2023-11-21T00:14:39;14.20;99.90
83019;DHT22;72834;40.104;18.336;2023-11-21T00:17:06;14.10;99.90
83019;DHT22;72834;40.104;18.336;2023-11-21T00:19:32;14.20;99.90
83019;DHT22;72834;40.104;18.336;2023-11-21T00:22:01;14.20;99.90
83019;DHT22;72834;40.104;18.336;2023-11-21T00:24:28;14.20;99.90
83019;DHT22;72834;40.104;18.336;2023-11-21T00:26:54;14.10;99.90
83019;DHT22;72834;40.104;18.336;2023-11-21T00:29:20;14.10;99.90
83019;DHT22;72834;40.104;18.336;2023-11-21T00:31:46;14.10;99.90
83019;DHT22;72834;40.104;18.336;2023-11-21T00:34:13;14.10;99.90
83019;DHT22;72834;40.104;18.336;2023-11-21T00:36:40;14.10;99.90
83019;DHT22;72834;40.104;18.336;2023-11-21T00:39:06;14.10;99.90
83019;DHT22;72834;40.104;18.336;2023-11-21T00:41:34;14.10;99.90
83019;DHT22;72834;40.104;18.336;2023-11-21T00:44:02;14.10;99.90
83019;DHT22;72834;40.104;18.336;2023-11-21T00:46:29;14.00;99.90
83019;DHT22;72834;40.104;18.336;2023-11-21T00:48:55;14.00;99.90
83019;DHT22;72834;40.104;18.336;2023-11-21T00:51:22;14.00;99.90
83019;DHT22;72834;40.104;18.336;2023-11-21T00:53:48;14.00;99.90
83019;DHT22;72834;40.104;18.336;2023-11-21T00:56:15;14.00;99.90
83019;DHT22;72834;40.104;18.336;2023-11-21T00:58:42;14.10;99.90
83019;DHT22;72834;40.104;18.336;2023-11-21T01:01:13;14.10;99.90
83019;DHT22;72834;40.104;18.336;2023-11-21T01:03:39;14.10;99.90
83019;DHT22;72834;40.104;18.336;2023-11-21T01:06:06;14.10;99.90
83019;DHT22;72834;40.104;18.336;2023-11-21T01:08:33;14.10;99.90
83019;DHT22;72834;40.104;18.336;2023-11-21T01:11:00;14.10;99.90
83019;DHT22;72834;40.104;18.336;2023-11-21T01:13:27;14.10;99.90
83019;DHT22;72834;40.104;18.336;2023-11-21T01:15:56;14.10;99.90
83019;DHT22;72834;40.104;18.336;2023-11-21T01:18:22;14.10;99.90
83019;DHT22;72834;40.104;18.336;2023-11-21T01:20:51;14.00;99.90
83019;DHT22;72834;40.104;18.336;2023-11-21T01:23:19;14.00;99.90
83019;DHT22;72834;40.104;18.336;2023-11-21T01:25:46;14.00;99.90
83019;DHT22;72834;40.104;18.336;2023-11-21T01:28:12;14.00;99.90
83019;DHT22;72834;40.104;18.336;2023-11-21T01:30:38;14.00;99.90
83019;DHT22;72834;40.104;18.336;2023-11-21T01:33:05;14.00;99.90
83019;DHT22;72834;40.104;18.336;2023-11-21T01:35:31;14.10;99.90
83019;DHT22;72834;40.104;18.336;2023-11-21T01:37:57;14.10;99.90
83019;DHT22;72834;40.104;18.336;2023-11-21T01:40:24;14.00;99.90
83019;DHT22;72834;40.104;18.336;2023-11-21T01:42:50;14.10;99.90
83019;DHT22;72834;40.104;18.336;2023-11-21T01:45:16;14.10;99.90
83019;DHT22;72834;40.104;18.336;2023-11-21T01:47:44;14.10;99.90
83019;DHT22;72834;40.104;18.336;2023-11-21T01:50:14;14.10;99.90
83019;DHT22;72834;40.104;18.336;2023-11-21T01:52:45;14.10;99.90
83019;DHT22;72834;40.104;18.336;2023-11-21T01:55:11;14.00;99.90
83019;DHT22;72834;40.104;18.336;2023-11-21T01:57:41;14.00;99.90
83019;DHT22;72834;40.104;18.336;2023-11-21T02:00:09;14.00;99.90
83019;DHT22;72834;40.104;18.336;2023-11-21T02:02:54;14.00;99.90
83019;DHT22;72834;40.104;18.336;2023-11-21T02:05:21;13.90;99.90
83019;DHT22;72834;40.104;18.336;2023-11-21T02:07:48;13.90;99.90
83019;DHT22;72834;40.104;18.336;2023-11-21T02:10:15;13.90;99.90
83019;DHT22;72834;40.104;18.336;2023-11-21T02:12:43;13.90;99.90
83019;DHT22;72834;40.104;18.336;2023-11-21T02:15:11;13.80;99.90
83019;DHT22;72834;40.104;18.336;2023-11-21T02:17:43;13.80;99.90
83019;DHT22;72834;40.104;18.336;2023-11-21T02:20:11;13.80;99.90
83019;DHT22;72834;40.104;18.336;2023-11-21T02:22:52;13.90;99.90
83019;DHT22;72834;40.104;18.336;2023-11-21T02:25:26;13.90;99.90
83019;DHT22;72834;40.104;18.336;2023-11-21T02:27:57;13.90;99.90
83019;DHT22;72834;40.104;18.336;2023-11-21T02:30:24;13.90;99.90
83019;DHT22;72834;40.104;18.336;2023-11-21T02:32:54;14.00;99.90
83019;DHT22;72834;40.104;18.336;2023-11-21T02:35:23;13.90;99.90
83019;DHT22;72834;40.104;18.336;2023-11-21T02:37:49;14.00;99.90
83019;DHT22;72834;40.104;18.336;2023-11-21T02:40:16;14.00;99.90
83019;DHT22;72834;40.104;18.336;2023-11-21T02:42:50;14.00;99.90
83019;DHT22;72834;40.104;18.336;2023-11-21T02:45:20;14.00;99.90
83019;DHT22;72834;40.104;18.336;2023-11-21T02:47:47;14.10;99.90
83019;DHT22;72834;40.104;18.336;2023-11-21T02:50:14;14.10;99.90
83019;DHT22;72834;40.104;18.336;2023-11-21T02:52:41;14.00;99.90
83019;DHT22;72834;40.104;18.336;2023-11-21T02:55:07;13.90;99.90
83019;DHT22;72834;40.104;18.336;2023-11-21T02:57:34;13.90;99.90
83019;DHT22;72834;40.104;18.336;2023-11-21T03:00:00;13.90;99.90
83019;DHT22;72834;40.104;18.336;2023-11-21T03:02:27;13.90;99.90
83019;DHT22;72834;40.104;18.336;2023-11-21T03:04:53;13.90;99.90
83019;DHT22;72834;40.104;18.336;2023-11-21T03:07:19;13.90;99.90
83019;DHT22;72834;40.104;18.336;2023-11-21T03:09:46;14.00;99.90
83019;DHT22;72834;40.104;18.336;2023-11-21T03:12:12;14.00;99.90
83019;DHT22;72834;40.104;18.336;2023-11-21T03:14:39;14.10;99.90
83019;DHT22;72834;40.104;18.336;2023-11-21T03:17:06;14.10;99.90
83019;DHT22;72834;40.104;18.336;2023-11-21T03:19:32;14.20;99.90
83019;DHT22;72834;40.104;18.336;2023-11-21T03:21:58;14.20;99.90
83019;DHT22;72834;40.104;18.336;2023-11-21T03:24:25;14.20;99.90
83019;DHT22;72834;40.104;18.336;2023-11-21T03:26:52;14.20;99.90
83019;DHT22;72834;40.104;18.336;2023-11-21T03:29:19;14.20;99.90
83019;DHT22;72834;40.104;18.336;2023-11-21T03:31:45;14.20;99.90
83019;DHT22;72834;40.104;18.336;2023-11-21T03:34:26;14.20;99.90
83019;DHT22;72834;40.104;18.336;2023-11-21T03:36:54;14.20;99.90
83019;DHT22;72834;40.104;18.336;2023-11-21T03:39:21;14.10;99.90
83019;DHT22;72834;40.104;18.336;2023-11-21T03:41:49;14.20;99.90
83019;DHT22;72834;40.104;18.336;2023-11-21T03:44:16;14.30;99.90
83019;DHT22;72834;40.104;18.336;2023-11-21T03:46:45;14.30;99.90
83019;DHT22;72834;40.104;18.336;2023-11-21T03:49:12;14.30;99.90
83019;DHT22;72834;40.104;18.336;2023-11-21T03:51:38;14.30;99.90
83019;DHT22;72834;40.104;18.336;2023-11-21T03:54:04;14.30;99.90
83019;DHT22;72834;40.104;18.336;2023-11-21T03:56:31;14.30;99.90
83019;DHT22;72834;40.104;18.336;2023-11-21T03:58:57;14.30;99.90
83019;DHT22;72834;40.104;18.336;2023-11-21T04:01:24;14.30;99.90
83019;DHT22;72834;40.104;18.336;2023-11-21T04:03:51;14.30;99.90
83019;DHT22;72834;40.104;18.336;2023-11-21T04:06:18;14.30;99.90
83019;DHT22;72834;40.104;18.336;2023-11-21T04:08:45;14.30;99.90
83019;DHT22;72834;40.104;18.336;2023-11-21T04:11:11;14.30;99.90
83019;DHT22;72834;40.104;18.336;2023-11-21T04:13:39;14.30;99.90
83019;DHT22;72834;40.104;18.336;2023-11-21T04:16:07;14.30;99.90
83019;DHT22;72834;40.104;18.336;2023-11-21T04:18:35;14.30;99.90
83019;DHT22;72834;40.104;18.336;2023-11-21T04:21:02;14.30;99.90
83019;DHT22;72834;40.104;18.336;2023-11-21T04:23:29;14.30;99.90
83019;DHT22;72834;40.104;18.336;2023-11-21T04:25:58;14.30;99.90
83019;DHT22;72834;40.104;18.336;2023-11-21T04:28:25;14.30;99.90
83019;DHT22;72834;40.104;18.336;2023-11-21T04:30:51;14.30;99.90
83019;DHT22;72834;40.104;18.336;2023-11-21T04:33:17;14.30;99.90
83019;DHT22;72834;40.104;18.336;2023-11-21T04:35:44;14.20;99.90
83019;DHT22;72834;40.104;18.336;2023-11-21T04:38:10;14.20;99.90
83019;DHT22;72834;40.104;18.336;2023-11-21T04:40:36;14.10;99.90
83019;DHT22;72834;40.104;18.336;2023-11-21T04:43:02;14.10;99.90
83019;DHT22;72834;40.104;18.336;2023-11-21T04:45:30;14.10;99.90
83019;DHT22;72834;40.104;18.336;2023-11-21T04:47:56;14.10;99.90
83019;DHT22;72834;40.104;18.336;2023-11-21T04:50:22;14.10;99.90
83019;DHT22;72834;40.104;18.336;2023-11-21T04:52:48;14.20;99.90
83019;DHT22;72834;40.104;18.336;2023-11-21T04:55:15;14.10;99.90
83019;DHT22;72834;40.104;18.336;2023-11-21T04:57:41;14.20;99.90
83019;DHT22;72834;40.104;18.336;2023-11-21T05:00:09;14.10;99.90
83019;DHT22;72834;40.104;18.336;2023-11-21T05:02:35;14.20;99.90
83019;DHT22;72834;40.104;18.336;2023-11-21T05:05:02;14.20;99.90
83019;DHT22;72834;40.104;18.336;2023-11-21T05:07:32;14.10;99.90
83019;DHT22;72834;40.104;18.336;2023-11-21T05:09:58;14.10;99.90
83019;DHT22;72834;40.104;18.336;2023-11-21T05:12:25;14.10;99.90
83019;DHT22;72834;40.104;18.336;2023-11-21T05:14:51;14.10;99.90
83019;DHT22;72834;40.104;18.336;2023-11-21T05:17:18;14.20;99.90
83019;DHT22;72834;40.104;18.336;2023-11-21T05:19:44;14.20;99.90
83019;DHT22;72834;40.104;18.336;2023-11-21T05:22:11;14.20;99.90
83019;DHT22;72834;40.104;18.336;2023-11-21T05:24:38;14.10;99.90
83019;DHT22;72834;40.104;18.336;2023-11-21T05:27:07;14.20;99.90
83019;DHT22;72834;40.104;18.336;2023-11-21T05:29:35;14.20;99.90
83019;DHT22;72834;40.104;18.336;2023-11-21T05:32:03;14.20;99.90
83019;DHT22;72834;40.104;18.336;2023-11-21T05:34:29;14.20;99.90
83019;DHT22;72834;40.104;18.336;2023-11-21T05:36:56;14.20;99.90
83019;DHT22;72834;40.104;18.336;2023-11-21T05:39:24;14.10;99.90
83019;DHT22;72834;40.104;18.336;2023-11-21T05:41:51;14.10;99.90
83019;DHT22;72834;40.104;18.336;2023-11-21T05:44:17;14.10;99.90
83019;DHT22;72834;40.104;18.336;2023-11-21T05:46:43;14.10;99.90
83019;DHT22;72834;40.104;18.336;2023-11-21T05:49:10;14.10;99.90
83019;DHT22;72834;40.104;18.336;2023-11-21T05:51:37;14.20;99.90
83019;DHT22;72834;40.104;18.336;2023-11-21T05:54:04;14.10;99.90
83019;DHT22;72834;40.104;18.336;2023-11-21T05:56:31;14.20;99.90
83019;DHT22;72834;40.104;18.336;2023-11-21T05:58:57;14.20;99.90
83019;DHT22;72834;40.104;18.336;2023-11-21T06:01:23;14.20;99.90
83019;DHT22;72834;40.104;18.336;2023-11-21T06:03:50;14.20;99.90
83019;DHT22;72834;40.104;18.336;2023-11-21T06:06:16;14.20;99.90
83019;DHT22;72834;40.104;18.336;2023-11-21T06:08:42;14.20;99.90
83019;DHT22;72834;40.104;18.336;2023-11-21T06:11:09;14.20;99.90
83019;DHT22;72834;40.104;18.336;2023-11-21T06:13:37;14.30;99.90
83019;DHT22;72834;40.104;18.336;2023-11-21T06:16:04;14.40;99.90
83019;DHT22;72834;40.104;18.336;2023-11-21T06:18:31;14.40;99.90
83019;DHT22;72834;40.104;18.336;2023-11-21T06:20:57;14.40;99.90
83019;DHT22;72834;40.104;18.336;2023-11-21T06:23:24;14.50;99.90
83019;DHT22;72834;40.104;18.336;2023-11-21T06:25:50;14.50;99.90
83019;DHT22;72834;40.104;18.336;2023-11-21T06:28:16;14.50;99.90
83019;DHT22;72834;40.104;18.336;2023-11-21T06:30:43;14.60;99.90
83019;DHT22;72834;40.104;18.336;2023-11-21T06:33:11;14.60;99.90
83019;DHT22;72834;40.104;18.336;2023-11-21T06:35:37;14.70;99.90
83019;DHT22;72834;40.104;18.336;2023-11-21T06:38:04;14.70;99.90
83019;DHT22;72834;40.104;18.336;2023-11-21T06:40:30;14.70;99.90
83019;DHT22;72834;40.104;18.336;2023-11-21T06:42:57;14.80;99.90
83019;DHT22;72834;40.104;18.336;2023-11-21T06:45:24;14.80;99.90
83019;DHT22;72834;40.104;18.336;2023-11-21T06:47:50;14.90;99.90
83019;DHT22;72834;40.104;18.336;2023-11-21T06:50:17;14.90;99.90
83019;DHT22;72834;40.104;18.336;2023-11-21T06:52:43;14.90;99.90
83019;DHT22;72834;40.104;18.336;2023-11-21T06:55:10;15.00;99.90
83019;DHT22;72834;40.104;18.336;2023-11-21T06:57:37;15.00;99.90
83019;DHT22;72834;40.104;18.336;2023-11-21T07:00:04;15.10;99.90
83019;DHT22;72834;40.104;18.336;2023-11-21T07:02:32;15.20;99.90
83019;DHT22;72834;40.104;18.336;2023-11-21T07:04:58;15.40;99.90
83019;DHT22;72834;40.104;18.336;2023-11-21T07:07:28;15.50;99.90
83019;DHT22;72834;40.104;18.336;2023-11-21T07:09:54;15.50;99.90
83019;DHT22;72834;40.104;18.336;2023-11-21T07:12:20;15.60;99.90
83019;DHT22;72834;40.104;18.336;2023-11-21T07:14:49;15.60;99.90
83019;DHT22;72834;40.104;18.336;2023-11-21T07:17:15;15.60;99.90
83019;DHT22;72834;40.104;18.336;2023-11-21T07:19:43;15.60;99.90
83019;DHT22;72834;40.104;18.336;2023-11-21T07:22:09;15.60;99.90
83019;DHT22;72834;40.104;18.336;2023-11-21T07:24:37;15.60;99.90
83019;DHT22;72834;40.104;18.336;2023-11-21T07:27:03;15.70;99.90
83019;DHT22;72834;40.104;18.336;2023-11-21T07:29:30;15.70;99.90
83019;DHT22;72834;40.104;18.336;2023-11-21T07:31:56;15.70;99.90
83019;DHT22;72834;40.104;18.336;2023-11-21T07:34:23;15.70;99.90
83019;DHT22;72834;40.104;18.336;2023-11-21T07:36:49;15.80;99.90
83019;DHT22;72834;40.104;18.336;2023-11-21T07:39:15;15.80;99.90
83019;DHT22;72834;40.104;18.336;2023-11-21T07:41:42;15.80;99.90
83019;DHT22;72834;40.104;18.336;2023-11-21T07:44:15;15.80;99.90
83019;DHT22;72834;40.104;18.336;2023-11-21T07:46:42;15.80;99.90
83019;DHT22;72834;40.104;18.336;2023-11-21T07:49:08;15.90;99.90
83019;DHT22;72834;40.104;18.336;2023-11-21T07:51:35;16.00;99.90
83019;DHT22;72834;40.104;18.336;2023-11-21T07:54:01;16.00;99.90
83019;DHT22;72834;40.104;18.336;2023-11-21T07:56:27;16.10;99.90
83019;DHT22;72834;40.104;18.336;2023-11-21T07:58:53;16.20;99.90
83019;DHT22;72834;40.104;18.336;2023-11-21T08:01:20;16.20;99.90
83019;DHT22;72834;40.104;18.336;2023-11-21T08:03:46;16.30;99.90
83019;DHT22;72834;40.104;18.336;2023-11-21T08:06:17;16.30;99.90
83019;DHT22;72834;40.104;18.336;2023-11-21T08:08:43;16.40;99.90
83019;DHT22;72834;40.104;18.336;2023-11-21T08:11:10;16.50;99.90
83019;DHT22;72834;40.104;18.336;2023-11-21T08:13:36;16.50;99.90
83019;DHT22;72834;40.104;18.336;2023-11-21T08:16:03;16.60;99.90
83019;DHT22;72834;40.104;18.336;2023-11-21T08:18:31;16.60;99.90
83019;DHT22;72834;40.104;18.336;2023-11-21T08:20:57;16.60;99.90
83019;DHT22;72834;40.104;18.336;2023-11-21T08:23:24;16.80;99.90
83019;DHT22;72834;40.104;18.336;2023-11-21T08:25:52;16.90;99.90
83019;DHT22;72834;40.104;18.336;2023-11-21T08:28:19;17.00;99.90
83019;DHT22;72834;40.104;18.336;2023-11-21T08:30:48;17.10;99.90
83019;DHT22;72834;40.104;18.336;2023-11-21T08:33:14;17.10;99.90
83019;DHT22;72834;40.104;18.336;2023-11-21T08:35:40;17.20;99.90
83019;DHT22;72834;40.104;18.336;2023-11-21T08:38:06;17.20;99.90
83019;DHT22;72834;40.104;18.336;2023-11-21T08:40:34;17.30;99.90
83019;DHT22;72834;40.104;18.336;2023-11-21T08:43:01;17.40;99.90
83019;DHT22;72834;40.104;18.336;2023-11-21T08:45:31;17.40;99.90
83019;DHT22;72834;40.104;18.336;2023-11-21T08:48:01;17.50;99.90
83019;DHT22;72834;40.104;18.336;2023-11-21T08:50:27;17.60;99.90
83019;DHT22;72834;40.104;18.336;2023-11-21T08:52:54;17.60;99.90
83019;DHT22;72834;40.104;18.336;2023-11-21T08:55:20;17.60;99.90
83019;DHT22;72834;40.104;18.336;2023-11-21T08:57:46;17.60;99.90
83019;DHT22;72834;40.104;18.336;2023-11-21T09:00:13;17.60;99.90
83019;DHT22;72834;40.104;18.336;2023-11-21T09:02:44;17.60;99.90
83019;DHT22;72834;40.104;18.336;2023-11-21T09:05:12;17.70;99.90
83019;DHT22;72834;40.104;18.336;2023-11-21T09:07:41;17.90;99.90
83019;DHT22;72834;40.104;18.336;2023-11-21T09:10:08;17.90;99.90
83019;DHT22;72834;40.104;18.336;2023-11-21T09:12:36;17.90;99.90
83019;DHT22;72834;40.104;18.336;2023-11-21T09:15:07;18.00;99.90
83019;DHT22;72834;40.104;18.336;2023-11-21T09:17:33;18.00;99.90
83019;DHT22;72834;40.104;18.336;2023-11-21T09:20:00;18.10;99.90
83019;DHT22;72834;40.104;18.336;2023-11-21T09:22:29;18.10;99.90
83019;DHT22;72834;40.104;18.336;2023-11-21T09:24:57;18.10;99.90
83019;DHT22;72834;40.104;18.336;2023-11-21T09:27:23;18.10;99.90
83019;DHT22;72834;40.104;18.336;2023-11-21T09:29:52;18.10;99.90
83019;DHT22;72834;40.104;18.336;2023-11-21T09:32:19;18.20;99.90
83019;DHT22;72834;40.104;18.336;2023-11-21T09:34:49;18.30;99.90
83019;DHT22;72834;40.104;18.336;2023-11-21T09:37:16;18.40;99.90
83019;DHT22;72834;40.104;18.336;2023-11-21T09:39:43;18.40;99.90
83019;DHT22;72834;40.104;18.336;2023-11-21T09:42:30;18.40;99.90
83019;DHT22;72834;40.104;18.336;2023-11-21T09:45:10;18.40;99.90
83019;DHT22;72834;40.104;18.336;2023-11-21T09:47:40;18.40;99.90
83019;DHT22;72834;40.104;18.336;2023-11-21T09:50:07;18.40;99.90
83019;DHT22;72834;40.104;18.336;2023-11-21T09:55:21;18.70;99.90
83019;DHT22;72834;40.104;18.336;2023-11-21T09:57:48;18.80;99.90
83019;DHT22;72834;40.104;18.336;2023-11-21T10:00:15;18.90;99.90
83019;DHT22;72834;40.104;18.336;2023-11-21T10:02:43;18.90;99.90
83019;DHT22;72834;40.104;18.336;2023-11-21T10:05:10;19.00;99.90
83019;DHT22;72834;40.104;18.336;2023-11-21T10:07:39;18.90;99.90
83019;DHT22;72834;40.104;18.336;2023-11-21T10:10:08;18.80;99.90
83019;DHT22;72834;40.104;18.336;2023-11-21T10:12:35;18.80;99.90
83019;DHT22;72834;40.104;18.336;2023-11-21T10:15:03;18.70;99.90
83019;DHT22;72834;40.104;18.336;2023-11-21T10:17:36;18.80;99.90
83019;DHT22;72834;40.104;18.336;2023-11-21T10:20:11;18.70;99.90
83019;DHT22;72834;40.104;18.336;2023-11-21T10:22:42;18.70;99.90
83019;DHT22;72834;40.104;18.336;2023-11-21T10:25:10;18.70;99.90
83019;DHT22;72834;40.104;18.336;2023-11-21T10:27:39;18.60;99.90
83019;DHT22;72834;40.104;18.336;2023-11-21T10:30:06;18.60;99.90
83019;DHT22;72834;40.104;18.336;2023-11-21T10:32:34;18.60;99.90
83019;DHT22;72834;40.104;18.336;2023-11-21T10:35:00;18.70;99.90
83019;DHT22;72834;40.104;18.336;2023-11-21T10:37:28;18.60;99.90
83019;DHT22;72834;40.104;18.336;2023-11-21T10:39:59;18.70;99.90
83019;DHT22;72834;40.104;18.336;2023-11-21T10:42:25;18.80;99.90
83019;DHT22;72834;40.104;18.336;2023-11-21T10:44:54;18.80;99.90
83019;DHT22;72834;40.104;18.336;2023-11-21T10:47:20;18.80;99.90
83019;DHT22;72834;40.104;18.336;2023-11-21T10:49:49;18.70;99.90
83019;DHT22;72834;40.104;18.336;2023-11-21T10:52:15;18.70;99.90
83019;DHT22;72834;40.104;18.336;2023-11-21T10:54:44;18.70;99.90
83019;DHT22;72834;40.104;18.336;2023-11-21T10:57:11;18.70;99.90
83019;DHT22;72834;40.104;18.336;2023-11-21T10:59:42;18.70;99.90
83019;DHT22;72834;40.104;18.336;2023-11-21T11:02:29;18.70;99.90
83019;DHT22;72834;40.104;18.336;2023-11-21T11:04:58;18.80;99.90
83019;DHT22;72834;40.104;18.336;2023-11-21T11:07:27;18.80;99.90
83019;DHT22;72834;40.104;18.336;2023-11-21T11:09:55;18.80;99.90
83019;DHT22;72834;40.104;18.336;2023-11-21T11:12:21;18.80;99.90
83019;DHT22;72834;40.104;18.336;2023-11-21T11:14:49;18.90;99.90
83019;DHT22;72834;40.104;18.336;2023-11-21T11:17:15;18.80;99.90
83019;DHT22;72834;40.104;18.336;2023-11-21T11:19:42;18.80;99.90
83019;DHT22;72834;40.104;18.336;2023-11-21T11:25:24;18.80;99.90
83019;DHT22;72834;40.104;18.336;2023-11-21T11:28:03;18.80;99.90
83019;DHT22;72834;40.104;18.336;2023-11-21T11:31:04;18.90;99.90
83019;DHT22;72834;40.104;18.336;2023-11-21T11:33:41;19.00;99.90
83019;DHT22;72834;40.104;18.336;2023-11-21T11:38:59;19.10;99.90
83019;DHT22;72834;40.104;18.336;2023-11-21T11:41:31;19.10;99.90
83019;DHT22;72834;40.104;18.336;2023-11-21T11:44:01;19.10;99.90
83019;DHT22;72834;40.104;18.336;2023-11-21T11:46:44;19.20;99.90
83019;DHT22;72834;40.104;18.336;2023-11-21T11:49:28;19.30;99.90
83019;DHT22;72834;40.104;18.336;2023-11-21T11:55:00;19.30;99.90
83019;DHT22;72834;40.104;18.336;2023-11-21T11:57:29;19.20;99.90
83019;DHT22;72834;40.104;18.336;2023-11-21T12:00:15;19.10;99.90
83019;DHT22;72834;40.104;18.336;2023-11-21T12:02:50;19.10;99.90
83019;DHT22;72834;40.104;18.336;2023-11-21T12:05:23;19.10;99.90
83019;DHT22;72834;40.104;18.336;2023-11-21T12:07:54;19.10;99.90
83019;DHT22;72834;40.104;18.336;2023-11-21T12:10:22;19.10;99.90
83019;DHT22;72834;40.104;18.336;2023-11-21T12:12:58;19.10;99.90
83019;DHT22;72834;40.104;18.336;2023-11-21T12:15:25;19.00;99.90
83019;DHT22;72834;40.104;18.336;2023-11-21T12:17:52;19.00;99.90
83019;DHT22;72834;40.104;18.336;2023-11-21T12:20:20;18.90;99.90
83019;DHT22;72834;40.104;18.336;2023-11-21T12:22:54;18.90;99.90
83019;DHT22;72834;40.104;18.336;2023-11-21T12:25:25;18.90;99.90
83019;DHT22;72834;40.104;18.336;2023-11-21T12:27:56;18.90;99.90
83019;DHT22;72834;40.104;18.336;2023-11-21T12:30:25;19.00;99.90
83019;DHT22;72834;40.104;18.336;2023-11-21T12:32:55;19.00;99.90
83019;DHT22;72834;40.104;18.336;2023-11-21T12:35:26;18.90;99.90
83019;DHT22;72834;40.104;18.336;2023-11-21T12:37:54;18.90;99.90
83019;DHT22;72834;40.104;18.336;2023-11-21T12:40:21;18.80;99.90
83019;DHT22;72834;40.104;18.336;2023-11-21T12:42:55;18.80;99.90
83019;DHT22;72834;40.104;18.336;2023-11-21T12:45:24;18.80;99.90
83019;DHT22;72834;40.104;18.336;2023-11-21T12:48:03;18.70;99.90
83019;DHT22;72834;40.104;18.336;2023-11-21T12:50:35;18.70;99.90
83019;DHT22;72834;40.104;18.336;2023-11-21T12:53:05;18.80;99.90
83019;DHT22;72834;40.104;18.336;2023-11-21T12:55:33;18.90;99.90
83019;DHT22;72834;40.104;18.336;2023-11-21T12:58:05;19.00;99.90
83019;DHT22;72834;40.104;18.336;2023-11-21T13:00:44;19.10;99.90
83019;DHT22;72834;40.104;18.336;2023-11-21T13:03:14;19.20;99.90
83019;DHT22;72834;40.104;18.336;2023-11-21T13:05:46;19.20;99.90
83019;DHT22;72834;40.104;18.336;2023-11-21T13:08:17;19.20;99.90
83019;DHT22;72834;40.104;18.336;2023-11-21T13:10:49;19.20;99.90
83019;DHT22;72834;40.104;18.336;2023-11-21T13:13:16;19.20;99.90
83019;DHT22;72834;40.104;18.336;2023-11-21T13:15:53;19.10;99.90
83019;DHT22;72834;40.104;18.336;2023-11-21T13:18:23;19.10;99.90
83019;DHT22;72834;40.104;18.336;2023-11-21T13:20:50;19.10;99.90
83019;DHT22;72834;40.104;18.336;2023-11-21T13:23:16;19.10;99.90
83019;DHT22;72834;40.104;18.336;2023-11-21T13:25:43;19.20;99.90
83019;DHT22;72834;40.104;18.336;2023-11-21T13:28:11;19.20;99.90
83019;DHT22;72834;40.104;18.336;2023-11-21T13:30:38;19.20;99.90
83019;DHT22;72834;40.104;18.336;2023-11-21T13:33:07;19.10;99.90
83019;DHT22;72834;40.104;18.336;2023-11-21T13:35:35;19.10;99.90
83019;DHT22;72834;40.104;18.336;2023-11-21T13:38:10;19.10;99.90
83019;DHT22;72834;40.104;18.336;2023-11-21T13:40:38;19.00;99.90
83019;DHT22;72834;40.104;18.336;2023-11-21T13:43:13;19.00;99.90
83019;DHT22;72834;40.104;18.336;2023-11-21T13:45:43;19.00;99.90
83019;DHT22;72834;40.104;18.336;2023-11-21T13:48:11;19.00;99.90
83019;DHT22;72834;40.104;18.336;2023-11-21T13:50:40;18.90;99.90
83019;DHT22;72834;40.104;18.336;2023-11-21T13:53:15;18.90;99.90
83019;DHT22;72834;40.104;18.336;2023-11-21T13:55:52;18.90;99.90
83019;DHT22;72834;40.104;18.336;2023-11-21T13:58:24;18.90;99.90
83019;DHT22;72834;40.104;18.336;2023-11-21T14:01:05;18.80;99.90
83019;DHT22;72834;40.104;18.336;2023-11-21T14:03:39;18.80;99.90
83019;DHT22;72834;40.104;18.336;2023-11-21T14:06:08;18.80;99.90
83019;DHT22;72834;40.104;18.336;2023-11-21T14:08:42;18.80;99.90
83019;DHT22;72834;40.104;18.336;2023-11-21T14:11:09;18.70;99.90
83019;DHT22;72834;40.104;18.336;2023-11-21T14:13:37;18.70;99.90
83019;DHT22;72834;40.104;18.336;2023-11-21T14:16:04;18.70;99.90
83019;DHT22;72834;40.104;18.336;2023-11-21T14:18:34;18.60;99.90
83019;DHT22;72834;40.104;18.336;2023-11-21T14:21:05;18.60;99.90
83019;DHT22;72834;40.104;18.336;2023-11-21T14:23:32;18.50;99.90
83019;DHT22;72834;40.104;18.336;2023-11-21T14:26:03;18.50;99.90
83019;DHT22;72834;40.104;18.336;2023-11-21T14:28:29;18.50;99.90
83019;DHT22;72834;40.104;18.336;2023-11-21T14:30:56;18.50;99.90
83019;DHT22;72834;40.104;18.336;2023-11-21T14:33:22;18.50;99.90
83019;DHT22;72834;40.104;18.336;2023-11-21T14:35:49;18.50;99.90
83019;DHT22;72834;40.104;18.336;2023-11-21T14:38:16;18.40;99.90
83019;DHT22;72834;40.104;18.336;2023-11-21T14:40:44;18.40;99.90
83019;DHT22;72834;40.104;18.336;2023-11-21T14:43:14;18.40;99.90
83019;DHT22;72834;40.104;18.336;2023-11-21T14:45:42;18.40;99.90
83019;DHT22;72834;40.104;18.336;2023-11-21T14:48:09;18.40;99.90
83019;DHT22;72834;40.104;18.336;2023-11-21T14:50:56;18.30;99.90
83019;DHT22;72834;40.104;18.336;2023-11-21T14:53:29;18.30;99.90
83019;DHT22;72834;40.104;18.336;2023-11-21T14:56:14;18.30;99.90
83019;DHT22;72834;40.104;18.336;2023-11-21T14:58:51;18.20;99.90
83019;DHT22;72834;40.104;18.336;2023-11-21T15:01:17;18.20;99.90
83019;DHT22;72834;40.104;18.336;2023-11-21T15:03:52;18.20;99.90
83019;DHT22;72834;40.104;18.336;2023-11-21T15:06:21;18.20;99.90
83019;DHT22;72834;40.104;18.336;2023-11-21T15:08:57;18.20;99.90
83019;DHT22;72834;40.104;18.336;2023-11-21T15:11:33;18.10;99.90
83019;DHT22;72834;40.104;18.336;2023-11-21T15:13:59;18.10;99.90
83019;DHT22;72834;40.104;18.336;2023-11-21T15:16:33;18.10;99.90
83019;DHT22;72834;40.104;18.336;2023-11-21T15:19:01;18.10;99.90
83019;DHT22;72834;40.104;18.336;2023-11-21T15:21:28;18.10;99.90
83019;DHT22;72834;40.104;18.336;2023-11-21T15:23:54;18.10;99.90
83019;DHT22;72834;40.104;18.336;2023-11-21T15:26:20;18.00;99.90
83019;DHT22;72834;40.104;18.336;2023-11-21T15:28:48;18.00;99.90
83019;DHT22;72834;40.104;18.336;2023-11-21T15:31:14;18.00;99.90
83019;DHT22;72834;40.104;18.336;2023-11-21T15:33:42;18.00;99.90
83019;DHT22;72834;40.104;18.336;2023-11-21T15:36:09;18.00;99.90